sensor_id;sensor_type;location;lat;lon;timestamp;pressure;altitude;pressure_sealevel;temperature;humidity
23223;BME280;11780;13.904;100.620;2023-02-28T00:00:47;101663.31;;;28.14;48.08
23223;BME280;11780;13.904;100.620;2023-02-28T00:03:17;101671.56;;;28.14;48.09
23223;BME280;11780;13.904;100.620;2023-02-28T00:05:47;101677.03;;;28.19;48.00
23223;BME280;11780;13.904;100.620;2023-02-28T00:08:17;101675.94;;;28.20;48.08
23223;BME280;11780;13.904;100.620;2023-02-28T00:10:47;101675.69;;;28.17;47.94
23223;BME280;11780;13.904;100.620;2023-02-28T00:13:17;101675.41;;;28.18;47.88
23223;BME280;11780;13.904;100.620;2023-02-28T00:15:47;101684.75;;;28.17;47.79
23223;BME280;11780;13.904;100.620;2023-02-28T00:18:17;101682.53;;;28.19;47.77
23223;BME280;11780;13.904;100.620;2023-02-28T00:20:46;101689.44;;;28.17;47.82
23223;BME280;11780;13.904;100.620;2023-02-28T00:23:17;101687.81;;;28.16;47.74
23223;BME280;11780;13.904;100.620;2023-02-28T00:25:47;101688.06;;;28.14;47.72
23223;BME280;11780;13.904;100.620;2023-02-28T00:28:20;101693.56;;;28.19;47.57
23223;BME280;11780;13.904;100.620;2023-02-28T00:31:09;101693.84;;;28.18;47.31
23223;BME280;11780;13.904;100.620;2023-02-28T00:33:39;101696.31;;;28.14;47.22
23223;BME280;11780;13.904;100.620;2023-02-28T00:36:10;101701.81;;;28.14;47.09
23223;BME280;11780;13.904;100.620;2023-02-28T00:38:41;101707.06;;;28.16;46.88
23223;BME280;11780;13.904;100.620;2023-02-28T00:41:11;101708.41;;;28.13;47.10
23223;BME280;11780;13.904;100.620;2023-02-28T00:43:41;101714.47;;;28.15;47.09
23223;BME280;11780;13.904;100.620;2023-02-28T00:46:12;101713.66;;;28.15;46.94
23223;BME280;11780;13.904;100.620;2023-02-28T00:48:42;101718.63;;;28.13;46.89
23223;BME280;11780;13.904;100.620;2023-02-28T00:51:14;101712.25;;;28.17;46.63
23223;BME280;11780;13.904;100.620;2023-02-28T00:54:00;101719.16;;;28.15;46.63
23223;BME280;11780;13.904;100.620;2023-02-28T00:56:30;101723.81;;;28.19;46.35
23223;BME280;11780;13.904;100.620;2023-02-28T00:59:00;101718.59;;;28.18;46.53
23223;BME280;11780;13.904;100.620;2023-02-28T01:01:30;101721.63;;;28.16;46.63
23223;BME280;11780;13.904;100.620;2023-02-28T01:04:00;101722.19;;;28.13;46.38
23223;BME280;11780;13.904;100.620;2023-02-28T01:06:35;101723.28;;;28.17;46.32
23223;BME280;11780;13.904;100.620;2023-02-28T01:09:07;101729.88;;;28.16;46.39
23223;BME280;11780;13.904;100.620;2023-02-28T01:11:37;101738.13;;;28.16;46.39
23223;BME280;11780;13.904;100.620;2023-02-28T01:14:14;101735.91;;;28.18;46.29
23223;BME280;11780;13.904;100.620;2023-02-28T01:16:45;101743.63;;;28.21;46.26
23223;BME280;11780;13.904;100.620;2023-02-28T01:19:15;101747.47;;;28.20;46.33
23223;BME280;11780;13.904;100.620;2023-02-28T01:21:46;101746.94;;;28.18;46.28
23223;BME280;11780;13.904;100.620;2023-02-28T01:24:34;101754.88;;;28.20;46.42
23223;BME280;11780;13.904;100.620;2023-02-28T01:27:04;101763.69;;;28.22;46.30
23223;BME280;11780;13.904;100.620;2023-02-28T01:29:36;101755.72;;;28.20;46.36
23223;BME280;11780;13.904;100.620;2023-02-28T01:32:06;101762.31;;;28.24;46.19
23223;BME280;11780;13.904;100.620;2023-02-28T01:34:52;101761.47;;;28.24;46.23
23223;BME280;11780;13.904;100.620;2023-02-28T01:37:25;101760.94;;;28.27;46.41
23223;BME280;11780;13.904;100.620;2023-02-28T01:39:55;101766.13;;;28.29;46.34
23223;BME280;11780;13.904;100.620;2023-02-28T01:42:25;101764.22;;;28.29;46.36
23223;BME280;11780;13.904;100.620;2023-02-28T01:48:12;101765.88;;;28.30;46.31
23223;BME280;11780;13.904;100.620;2023-02-28T01:51:05;101768.06;;;28.33;45.89
23223;BME280;11780;13.904;100.620;2023-02-28T01:53:49;101765.88;;;28.30;45.76
23223;BME280;11780;13.904;100.620;2023-02-28T01:56:30;101779.06;;;28.33;45.84
23223;BME280;11780;13.904;100.620;2023-02-28T01:59:05;101777.94;;;28.34;45.94
23223;BME280;11780;13.904;100.620;2023-02-28T02:01:35;101781.53;;;28.35;45.76
23223;BME280;11780;13.904;100.620;2023-02-28T02:04:05;101783.19;;;28.36;45.65
23223;BME280;11780;13.904;100.620;2023-02-28T02:06:42;101783.19;;;28.36;45.58
23223;BME280;11780;13.904;100.620;2023-02-28T02:09:13;101791.44;;;28.36;45.96
23223;BME280;11780;13.904;100.620;2023-02-28T02:11:44;101793.91;;;28.37;45.66
23223;BME280;11780;13.904;100.620;2023-02-28T02:17:42;101799.69;;;28.36;45.34
23223;BME280;11780;13.904;100.620;2023-02-28T02:40:57;101817.25;;;28.45;45.62
23223;BME280;11780;13.904;100.620;2023-02-28T02:44:12;101817.56;;;28.44;45.36
23223;BME280;11780;13.904;100.620;2023-02-28T02:46:52;101818.38;;;28.44;45.58
23223;BME280;11780;13.904;100.620;2023-02-28T02:49:46;101825.81;;;28.44;46.13
23223;BME280;11780;13.904;100.620;2023-02-28T02:52:23;101824.41;;;28.46;45.65
23223;BME280;11780;13.904;100.620;2023-02-28T02:54:57;101825.50;;;28.45;45.95
23223;BME280;11780;13.904;100.620;2023-02-28T03:00:04;101820.56;;;28.47;46.03
23223;BME280;11780;13.904;100.620;2023-02-28T03:02:40;101823.31;;;28.47;46.00
23223;BME280;11780;13.904;100.620;2023-02-28T03:05:30;101823.06;;;28.49;46.06
23223;BME280;11780;13.904;100.620;2023-02-28T03:08:04;101823.84;;;28.49;46.25
23223;BME280;11780;13.904;100.620;2023-02-28T03:10:40;101827.72;;;28.53;46.13
23223;BME280;11780;13.904;100.620;2023-02-28T03:19:59;101820.00;;;28.55;46.08
23223;BME280;11780;13.904;100.620;2023-02-28T03:25:56;101807.88;;;28.56;46.17
23223;BME280;11780;13.904;100.620;2023-02-28T03:29:35;101820.25;;;28.59;46.28
23223;BME280;11780;13.904;100.620;2023-02-28T03:32:11;101812.00;;;28.59;46.30
23223;BME280;11780;13.904;100.620;2023-02-28T03:34:56;101817.50;;;28.59;46.32
23223;BME280;11780;13.904;100.620;2023-02-28T03:37:30;101806.19;;;28.61;46.29
23223;BME280;11780;13.904;100.620;2023-02-28T03:40:20;101805.09;;;28.62;46.28
23223;BME280;11780;13.904;100.620;2023-02-28T03:42:57;101805.63;;;28.64;46.40
23223;BME280;11780;13.904;100.620;2023-02-28T03:45:32;101803.41;;;28.66;46.36
23223;BME280;11780;13.904;100.620;2023-02-28T03:48:18;101801.47;;;28.66;46.36
23223;BME280;11780;13.904;100.620;2023-02-28T03:50:54;101794.88;;;28.67;46.45
23223;BME280;11780;13.904;100.620;2023-02-28T03:53:49;101779.19;;;28.68;46.38
23223;BME280;11780;13.904;100.620;2023-02-28T03:56:56;101780.84;;;28.69;46.10
23223;BME280;11780;13.904;100.620;2023-02-28T03:59:59;101780.28;;;28.72;46.34
23223;BME280;11780;13.904;100.620;2023-02-28T04:02:51;101766.50;;;28.72;46.00
23223;BME280;11780;13.904;100.620;2023-02-28T04:05:22;101776.16;;;28.75;46.20
23223;BME280;11780;13.904;100.620;2023-02-28T04:07:52;101769.00;;;28.74;46.32
23223;BME280;11780;13.904;100.620;2023-02-28T04:10:39;101758.78;;;28.74;46.63
23223;BME280;11780;13.904;100.620;2023-02-28T04:13:27;101755.78;;;28.76;46.33
23223;BME280;11780;13.904;100.620;2023-02-28T04:15:57;101752.72;;;28.77;45.97
23223;BME280;11780;13.904;100.620;2023-02-28T04:18:27;101751.06;;;28.76;46.00
23223;BME280;11780;13.904;100.620;2023-02-28T04:21:00;101744.47;;;28.77;46.19
23223;BME280;11780;13.904;100.620;2023-02-28T04:23:49;101745.28;;;28.78;46.41
23223;BME280;11780;13.904;100.620;2023-02-28T04:26:20;101730.94;;;28.81;46.58
23223;BME280;11780;13.904;100.620;2023-02-28T04:28:50;101725.44;;;28.81;46.21
23223;BME280;11780;13.904;100.620;2023-02-28T04:31:36;101724.06;;;28.83;46.33
23223;BME280;11780;13.904;100.620;2023-02-28T04:34:06;101725.16;;;28.82;46.33
23223;BME280;11780;13.904;100.620;2023-02-28T04:36:55;101711.09;;;28.84;46.46
23223;BME280;11780;13.904;100.620;2023-02-28T04:39:40;101709.19;;;28.84;46.19
23223;BME280;11780;13.904;100.620;2023-02-28T04:42:28;101704.47;;;28.85;46.24
23223;BME280;11780;13.904;100.620;2023-02-28T04:45:05;101697.88;;;28.86;46.28
23223;BME280;11780;13.904;100.620;2023-02-28T04:47:53;101691.25;;;28.87;46.22
23223;BME280;11780;13.904;100.620;2023-02-28T04:50:42;101681.88;;;28.88;46.43
23223;BME280;11780;13.904;100.620;2023-02-28T04:53:13;101694.25;;;28.91;46.36
23223;BME280;11780;13.904;100.620;2023-02-28T04:55:43;101683.75;;;28.93;46.36
23223;BME280;11780;13.904;100.620;2023-02-28T04:58:15;101677.44;;;28.92;46.04
23223;BME280;11780;13.904;100.620;2023-02-28T05:00:45;101671.63;;;28.94;46.23
23223;BME280;11780;13.904;100.620;2023-02-28T05:03:16;101663.38;;;28.94;46.33
23223;BME280;11780;13.904;100.620;2023-02-28T05:06:05;101661.97;;;28.96;46.29
23223;BME280;11780;13.904;100.620;2023-02-28T05:08:51;101651.78;;;28.97;46.15
23223;BME280;11780;13.904;100.620;2023-02-28T05:11:40;101645.16;;;28.98;46.27
23223;BME280;11780;13.904;100.620;2023-02-28T05:14:13;101639.09;;;29.01;46.07
23223;BME280;11780;13.904;100.620;2023-02-28T05:16:43;101635.50;;;29.00;46.05
23223;BME280;11780;13.904;100.620;2023-02-28T05:19:13;101639.63;;;29.03;46.11
23223;BME280;11780;13.904;100.620;2023-02-28T05:21:54;101624.22;;;29.02;46.31
23223;BME280;11780;13.904;100.620;2023-02-28T05:24:40;101626.66;;;29.04;46.23
23223;BME280;11780;13.904;100.620;2023-02-28T05:27:11;101625.25;;;29.06;46.08
23223;BME280;11780;13.904;100.620;2023-02-28T05:29:42;101613.13;;;29.07;46.10
23223;BME280;11780;13.904;100.620;2023-02-28T05:32:15;101616.41;;;29.09;45.86
23223;BME280;11780;13.904;100.620;2023-02-28T05:34:45;101601.00;;;29.08;46.02
23223;BME280;11780;13.904;100.620;2023-02-28T05:37:15;101595.22;;;29.10;45.98
23223;BME280;11780;13.904;100.620;2023-02-28T05:39:46;101599.31;;;29.12;46.03
23223;BME280;11780;13.904;100.620;2023-02-28T05:42:15;101585.22;;;29.14;46.05
23223;BME280;11780;13.904;100.620;2023-02-28T05:44:46;101581.38;;;29.15;46.19
23223;BME280;11780;13.904;100.620;2023-02-28T05:47:16;101581.09;;;29.16;45.96
23223;BME280;11780;13.904;100.620;2023-02-28T05:49:46;101579.13;;;29.17;45.82
23223;BME280;11780;13.904;100.620;2023-02-28T05:52:17;101574.47;;;29.17;46.12
23223;BME280;11780;13.904;100.620;2023-02-28T05:54:47;101565.09;;;29.19;45.94
23223;BME280;11780;13.904;100.620;2023-02-28T05:57:17;101561.22;;;29.20;45.74
23223;BME280;11780;13.904;100.620;2023-02-28T05:59:51;101561.72;;;29.22;45.80
23223;BME280;11780;13.904;100.620;2023-02-28T06:02:39;101557.06;;;29.22;45.57
23223;BME280;11780;13.904;100.620;2023-02-28T06:05:14;101545.19;;;29.22;45.41
23223;BME280;11780;13.904;100.620;2023-02-28T06:07:45;101546.56;;;29.24;45.89
23223;BME280;11780;13.904;100.620;2023-02-28T06:10:15;101543.50;;;29.26;45.62
23223;BME280;11780;13.904;100.620;2023-02-28T06:12:45;101547.38;;;29.25;45.81
23223;BME280;11780;13.904;100.620;2023-02-28T06:15:16;101540.75;;;29.26;45.59
23223;BME280;11780;13.904;100.620;2023-02-28T06:17:46;101525.06;;;29.26;45.45
23223;BME280;11780;13.904;100.620;2023-02-28T06:20:16;101517.59;;;29.27;45.19
23223;BME280;11780;13.904;100.620;2023-02-28T06:22:47;101499.94;;;29.28;45.34
23223;BME280;11780;13.904;100.620;2023-02-28T06:25:17;101504.34;;;29.29;45.39
23223;BME280;11780;13.904;100.620;2023-02-28T06:28:05;101507.09;;;29.29;45.35
23223;BME280;11780;13.904;100.620;2023-02-28T06:30:53;101491.09;;;29.31;45.33
23223;BME280;11780;13.904;100.620;2023-02-28T06:33:43;101481.72;;;29.32;45.35
23223;BME280;11780;13.904;100.620;2023-02-28T06:36:15;101476.19;;;29.32;45.34
23223;BME280;11780;13.904;100.620;2023-02-28T06:38:45;101464.63;;;29.35;45.16
23223;BME280;11780;13.904;100.620;2023-02-28T06:41:54;101450.84;;;29.35;45.45
23223;BME280;11780;13.904;100.620;2023-02-28T06:44:43;101447.47;;;29.38;45.13
23223;BME280;11780;13.904;100.620;2023-02-28T06:47:31;101447.47;;;29.38;45.29
23223;BME280;11780;13.904;100.620;2023-02-28T06:50:02;101443.31;;;29.41;45.22
23223;BME280;11780;13.904;100.620;2023-02-28T06:52:47;101433.41;;;29.40;45.07
23223;BME280;11780;13.904;100.620;2023-02-28T06:55:38;101432.00;;;29.42;45.46
23223;BME280;11780;13.904;100.620;2023-02-28T06:58:26;101428.13;;;29.43;45.23
23223;BME280;11780;13.904;100.620;2023-02-28T07:01:14;101411.91;;;29.42;45.12
23223;BME280;11780;13.904;100.620;2023-02-28T07:04:05;101409.94;;;29.42;45.11
23223;BME280;11780;13.904;100.620;2023-02-28T07:06:50;101402.19;;;29.44;45.24
23223;BME280;11780;13.904;100.620;2023-02-28T07:09:20;101400.25;;;29.45;45.02
23223;BME280;11780;13.904;100.620;2023-02-28T07:11:51;101397.50;;;29.45;45.00
23223;BME280;11780;13.904;100.620;2023-02-28T07:14:39;101386.72;;;29.49;45.07
23223;BME280;11780;13.904;100.620;2023-02-28T07:17:10;101387.84;;;29.47;44.75
23223;BME280;11780;13.904;100.620;2023-02-28T07:19:41;101383.97;;;29.49;44.95
23223;BME280;11780;13.904;100.620;2023-02-28T07:22:12;101384.75;;;29.49;45.01
23223;BME280;11780;13.904;100.620;2023-02-28T07:24:43;101379.78;;;29.51;45.19
23223;BME280;11780;13.904;100.620;2023-02-28T07:27:13;101385.28;;;29.51;45.09
23223;BME280;11780;13.904;100.620;2023-02-28T07:30:11;101382.22;;;29.53;45.00
23223;BME280;11780;13.904;100.620;2023-02-28T07:32:42;101371.50;;;29.51;45.16
23223;BME280;11780;13.904;100.620;2023-02-28T07:35:12;101366.81;;;29.52;44.87
23223;BME280;11780;13.904;100.620;2023-02-28T07:37:44;101365.69;;;29.53;45.14
23223;BME280;11780;13.904;100.620;2023-02-28T07:40:16;101358.53;;;29.52;44.99
23223;BME280;11780;13.904;100.620;2023-02-28T07:42:48;101364.03;;;29.52;45.04
23223;BME280;11780;13.904;100.620;2023-02-28T07:45:19;101365.69;;;29.53;45.09
23223;BME280;11780;13.904;100.620;2023-02-28T07:47:49;101360.69;;;29.55;45.14
23223;BME280;11780;13.904;100.620;2023-02-28T07:50:19;101358.78;;;29.55;45.06
23223;BME280;11780;13.904;100.620;2023-02-28T07:52:51;101351.63;;;29.54;45.31
23223;BME280;11780;13.904;100.620;2023-02-28T07:55:39;101349.38;;;29.56;45.23
23223;BME280;11780;13.904;100.620;2023-02-28T07:58:10;101352.94;;;29.57;45.20
23223;BME280;11780;13.904;100.620;2023-02-28T08:00:56;101340.00;;;29.57;45.31
23223;BME280;11780;13.904;100.620;2023-02-28T08:03:42;101345.19;;;29.59;45.26
23223;BME280;11780;13.904;100.620;2023-02-28T08:06:31;101346.31;;;29.58;45.38
23223;BME280;11780;13.904;100.620;2023-02-28T08:09:02;101336.41;;;29.57;45.25
23223;BME280;11780;13.904;100.620;2023-02-28T08:11:32;101331.72;;;29.57;45.51
23223;BME280;11780;13.904;100.620;2023-02-28T08:14:02;101328.13;;;29.57;45.49
23223;BME280;11780;13.904;100.620;2023-02-28T08:16:51;101326.22;;;29.57;45.30
23223;BME280;11780;13.904;100.620;2023-02-28T08:19:39;101324.25;;;29.58;45.54
23223;BME280;11780;13.904;100.620;2023-02-28T08:22:10;101327.53;;;29.60;45.44
23223;BME280;11780;13.904;100.620;2023-02-28T08:24:42;101319.88;;;29.57;45.62
23223;BME280;11780;13.904;100.620;2023-02-28T08:27:13;101314.06;;;29.58;45.66
23223;BME280;11780;13.904;100.620;2023-02-28T08:29:44;101321.50;;;29.58;45.38
23223;BME280;11780;13.904;100.620;2023-02-28T08:32:14;101314.06;;;29.58;45.37
23223;BME280;11780;13.904;100.620;2023-02-28T08:34:57;101321.19;;;29.59;45.59
23223;BME280;11780;13.904;100.620;2023-02-28T08:37:47;101319.59;;;29.58;45.46
23223;BME280;11780;13.904;100.620;2023-02-28T08:40:18;101322.03;;;29.60;45.53
23223;BME280;11780;13.904;100.620;2023-02-28T08:42:50;101322.84;;;29.60;45.72
23223;BME280;11780;13.904;100.620;2023-02-28T08:45:20;101327.53;;;29.60;45.52
23223;BME280;11780;13.904;100.620;2023-02-28T08:47:50;101322.84;;;29.60;45.84
23223;BME280;11780;13.904;100.620;2023-02-28T08:50:40;101315.69;;;29.59;45.45
23223;BME280;11780;13.904;100.620;2023-02-28T08:53:32;101317.31;;;29.60;45.64
23223;BME280;11780;13.904;100.620;2023-02-28T08:56:21;101320.06;;;29.60;45.59
23223;BME280;11780;13.904;100.620;2023-02-28T08:59:09;101312.94;;;29.59;45.52
23223;BME280;11780;13.904;100.620;2023-02-28T09:01:39;101309.34;;;29.59;45.54
23223;BME280;11780;13.904;100.620;2023-02-28T09:04:30;101310.16;;;29.59;45.56
23223;BME280;11780;13.904;100.620;2023-02-28T09:07:18;101311.00;;;29.60;45.69
23223;BME280;11780;13.904;100.620;2023-02-28T09:09:48;101304.66;;;29.59;45.77
23223;BME280;11780;13.904;100.620;2023-02-28T09:12:26;101308.75;;;29.62;45.74
23223;BME280;11780;13.904;100.620;2023-02-28T09:14:56;101313.44;;;29.61;45.53
23223;BME280;11780;13.904;100.620;2023-02-28T09:17:25;101308.75;;;29.62;45.56
23223;BME280;11780;13.904;100.620;2023-02-28T09:20:15;101314.28;;;29.62;45.58
23223;BME280;11780;13.904;100.620;2023-02-28T09:22:45;101311.53;;;29.62;45.81
23223;BME280;11780;13.904;100.620;2023-02-28T09:25:15;101304.88;;;29.63;45.43
23223;BME280;11780;13.904;100.620;2023-02-28T09:27:45;101304.06;;;29.62;45.82
23223;BME280;11780;13.904;100.620;2023-02-28T09:30:15;101303.78;;;29.64;45.51
23223;BME280;11780;13.904;100.620;2023-02-28T09:32:46;101299.38;;;29.63;45.76
23223;BME280;11780;13.904;100.620;2023-02-28T09:35:22;101300.19;;;29.63;45.55
23223;BME280;11780;13.904;100.620;2023-02-28T09:37:53;101301.00;;;29.64;45.46
23223;BME280;11780;13.904;100.620;2023-02-28T09:43:25;101306.53;;;29.64;45.86
23223;BME280;11780;13.904;100.620;2023-02-28T09:48:54;101306.53;;;29.64;45.95
23223;BME280;11780;13.904;100.620;2023-02-28T09:51:40;101304.56;;;29.65;45.89
23223;BME280;11780;13.904;100.620;2023-02-28T09:54:23;101312.03;;;29.64;45.77
23223;BME280;11780;13.904;100.620;2023-02-28T09:57:01;101306.53;;;29.64;45.89
23223;BME280;11780;13.904;100.620;2023-02-28T10:10:33;101312.84;;;29.65;45.96
23223;BME280;11780;13.904;100.620;2023-02-28T10:17:12;101316.13;;;29.67;46.33
23223;BME280;11780;13.904;100.620;2023-02-28T10:22:22;101325.19;;;29.67;46.51
23223;BME280;11780;13.904;100.620;2023-02-28T10:24:57;101322.44;;;29.67;46.38
23223;BME280;11780;13.904;100.620;2023-02-28T10:27:34;101328.78;;;29.68;46.49
23223;BME280;11780;13.904;100.620;2023-02-28T10:30:22;101335.44;;;29.67;46.47
23223;BME280;11780;13.904;100.620;2023-02-28T10:32:52;101337.88;;;29.68;46.54
23223;BME280;11780;13.904;100.620;2023-02-28T10:35:44;101340.63;;;29.68;46.61
23223;BME280;11780;13.904;100.620;2023-02-28T10:38:26;101336.75;;;29.69;46.62
23223;BME280;11780;13.904;100.620;2023-02-28T10:43:53;101339.50;;;29.69;46.64
23223;BME280;11780;13.904;100.620;2023-02-28T10:46:42;101341.47;;;29.69;46.57
23223;BME280;11780;13.904;100.620;2023-02-28T10:49:28;101331.22;;;29.69;46.88
23223;BME280;11780;13.904;100.620;2023-02-28T10:52:00;101347.78;;;29.69;46.64
23223;BME280;11780;13.904;100.620;2023-02-28T10:54:35;101342.25;;;29.69;46.80
23223;BME280;11780;13.904;100.620;2023-02-28T10:57:19;101340.63;;;29.68;46.93
23223;BME280;11780;13.904;100.620;2023-02-28T10:59:52;101344.22;;;29.69;46.79
23223;BME280;11780;13.904;100.620;2023-02-28T11:02:44;101341.47;;;29.69;47.01
23223;BME280;11780;13.904;100.620;2023-02-28T11:05:29;101346.13;;;29.68;46.85
23223;BME280;11780;13.904;100.620;2023-02-28T11:08:10;101353.28;;;29.69;46.93
23223;BME280;11780;13.904;100.620;2023-02-28T11:10:47;101349.72;;;29.69;47.00
23223;BME280;11780;13.904;100.620;2023-02-28T11:13:20;101354.13;;;29.70;47.26
23223;BME280;11780;13.904;100.620;2023-02-28T11:15:57;101352.50;;;29.69;47.03
23223;BME280;11780;13.904;100.620;2023-02-28T11:21:37;101356.88;;;29.70;47.33
23223;BME280;11780;13.904;100.620;2023-02-28T11:24:35;101352.50;;;29.69;47.31
23223;BME280;11780;13.904;100.620;2023-02-28T11:30:00;101354.41;;;29.68;47.47
23223;BME280;11780;13.904;100.620;2023-02-28T11:32:31;101361.56;;;29.69;47.30
23223;BME280;11780;13.904;100.620;2023-02-28T11:35:39;101365.16;;;29.70;47.57
23223;BME280;11780;13.904;100.620;2023-02-28T11:38:12;101372.59;;;29.69;47.65
23223;BME280;11780;13.904;100.620;2023-02-28T11:46:56;101372.59;;;29.69;47.83
23223;BME280;11780;13.904;100.620;2023-02-28T11:49:50;101381.97;;;29.68;47.85
23223;BME280;11780;13.904;100.620;2023-02-28T11:55:26;101383.94;;;29.68;47.98
23223;BME280;11780;13.904;100.620;2023-02-28T12:04:35;101389.13;;;29.69;48.09
23223;BME280;11780;13.904;100.620;2023-02-28T12:07:21;101394.97;;;29.68;48.12
23223;BME280;11780;13.904;100.620;2023-02-28T12:15:23;101409.56;;;29.68;48.07
23223;BME280;11780;13.904;100.620;2023-02-28T12:20:47;101420.00;;;29.71;48.18
23223;BME280;11780;13.904;100.620;2023-02-28T12:23:37;101415.06;;;29.68;48.18
23223;BME280;11780;13.904;100.620;2023-02-28T12:26:36;101411.50;;;29.68;48.28
23223;BME280;11780;13.904;100.620;2023-02-28T12:32:10;101424.19;;;29.69;48.38
23223;BME280;11780;13.904;100.620;2023-02-28T12:34:49;101435.41;;;29.72;48.44
23223;BME280;11780;13.904;100.620;2023-02-28T12:37:47;101440.94;;;29.72;48.42
23223;BME280;11780;13.904;100.620;2023-02-28T12:40:22;101436.00;;;29.69;48.47
23223;BME280;11780;13.904;100.620;2023-02-28T12:42:59;101444.53;;;29.73;48.42
23223;BME280;11780;13.904;100.620;2023-02-28T12:45:40;101453.09;;;29.71;48.64
23223;BME280;11780;13.904;100.620;2023-02-28T12:48:43;101462.19;;;29.72;48.86
23223;BME280;11780;13.904;100.620;2023-02-28T12:51:16;101461.88;;;29.73;48.67
23223;BME280;11780;13.904;100.620;2023-02-28T12:56:44;101479.53;;;29.72;48.60
23223;BME280;11780;13.904;100.620;2023-02-28T12:59:39;101475.66;;;29.73;48.70
23223;BME280;11780;13.904;100.620;2023-02-28T13:37:30;101530.47;;;29.31;50.29
23223;BME280;11780;13.904;100.620;2023-02-28T13:43:20;101535.72;;;29.33;50.49
23223;BME280;11780;13.904;100.620;2023-02-28T13:46:13;101545.63;;;29.34;50.50
23223;BME280;11780;13.904;100.620;2023-02-28T13:48:52;101547.31;;;29.35;50.44
23223;BME280;11780;13.904;100.620;2023-02-28T13:51:48;101543.94;;;29.38;50.06
23223;BME280;11780;13.904;100.620;2023-02-28T13:54:42;101546.63;;;29.43;50.07
23223;BME280;11780;13.904;100.620;2023-02-28T14:06:31;101558.06;;;29.56;49.67
23223;BME280;11780;13.904;100.620;2023-02-28T14:09:27;101564.41;;;29.56;49.51
23223;BME280;11780;13.904;100.620;2023-02-28T14:24:54;101570.94;;;29.60;50.46
23223;BME280;11780;13.904;100.620;2023-02-28T14:27:50;101567.97;;;29.57;51.29
23223;BME280;11780;13.904;100.620;2023-02-28T14:36:37;101561.94;;;29.55;52.05
23223;BME280;11780;13.904;100.620;2023-02-28T14:39:26;101567.75;;;29.53;51.92
23223;BME280;11780;13.904;100.620;2023-02-28T14:42:35;101572.16;;;29.54;51.94
23223;BME280;11780;13.904;100.620;2023-02-28T14:45:22;101559.69;;;29.57;51.67
23223;BME280;11780;13.904;100.620;2023-02-28T14:47:57;101572.69;;;29.56;50.67
23223;BME280;11780;13.904;100.620;2023-02-28T14:50:35;101564.94;;;29.58;50.73
23223;BME280;11780;13.904;100.620;2023-02-28T14:53:18;101565.22;;;29.57;50.75
23223;BME280;11780;13.904;100.620;2023-02-28T14:55:54;101574.81;;;29.59;50.19
23223;BME280;11780;13.904;100.620;2023-02-28T14:58:29;101572.91;;;29.60;50.05
23223;BME280;11780;13.904;100.620;2023-02-28T15:01:03;101576.78;;;29.59;49.80
23223;BME280;11780;13.904;100.620;2023-02-28T15:03:39;101566.28;;;29.61;49.79
23223;BME280;11780;13.904;100.620;2023-02-28T15:06:17;101570.94;;;29.60;50.14
23223;BME280;11780;13.904;100.620;2023-02-28T15:09:09;101582.81;;;29.61;50.20
23223;BME280;11780;13.904;100.620;2023-02-28T15:11:46;101579.00;;;29.57;50.03
23223;BME280;11780;13.904;100.620;2023-02-28T15:14:22;101580.34;;;29.59;50.03
23223;BME280;11780;13.904;100.620;2023-02-28T15:16:59;101577.34;;;29.56;49.95
23223;BME280;11780;13.904;100.620;2023-02-28T15:19:37;101581.22;;;29.55;49.87
23223;BME280;11780;13.904;100.620;2023-02-28T15:22:16;101587.28;;;29.57;50.09
23223;BME280;11780;13.904;100.620;2023-02-28T15:24:52;101581.41;;;29.63;50.31
23223;BME280;11780;13.904;100.620;2023-02-28T15:27:30;101588.34;;;29.61;50.46
23223;BME280;11780;13.904;100.620;2023-02-28T15:30:07;101579.00;;;29.57;50.14
23223;BME280;11780;13.904;100.620;2023-02-28T15:32:39;101573.78;;;29.55;50.28
23223;BME280;11780;13.904;100.620;2023-02-28T15:38:18;101581.47;;;29.58;49.99
23223;BME280;11780;13.904;100.620;2023-02-28T15:40:56;101583.41;;;29.58;50.11
23223;BME280;11780;13.904;100.620;2023-02-28T15:46:02;101588.69;;;29.54;50.26
23223;BME280;11780;13.904;100.620;2023-02-28T15:48:50;101585.94;;;29.54;50.06
23223;BME280;11780;13.904;100.620;2023-02-28T15:51:33;101587.84;;;29.54;49.93
23223;BME280;11780;13.904;100.620;2023-02-28T15:54:08;101595.00;;;29.55;49.95
23223;BME280;11780;13.904;100.620;2023-02-28T15:56:43;101587.31;;;29.52;49.95
23223;BME280;11780;13.904;100.620;2023-02-28T15:59:44;101595.59;;;29.52;49.88
23223;BME280;11780;13.904;100.620;2023-02-28T16:02:22;101603.59;;;29.53;50.23
23223;BME280;11780;13.904;100.620;2023-02-28T16:07:41;101601.63;;;29.54;49.96
23223;BME280;11780;13.904;100.620;2023-02-28T16:10:12;101601.63;;;29.54;49.85
23223;BME280;11780;13.904;100.620;2023-02-28T16:12:46;101604.94;;;29.56;49.83
23223;BME280;11780;13.904;100.620;2023-02-28T16:15:28;101601.09;;;29.52;49.62
23223;BME280;11780;13.904;100.620;2023-02-28T16:17:58;101602.25;;;29.51;49.66
23223;BME280;11780;13.904;100.620;2023-02-28T16:20:30;101598.88;;;29.54;49.52
23223;BME280;11780;13.904;100.620;2023-02-28T16:23:01;101596.13;;;29.54;49.40